メインページ
METAR-TAF:

METAR-TAF

空港 :

オデッサ国際空港

オデッサ, ウクライナ

緯度: 46-26N, 経度: 030-46E, 海抜: 42m

現時点の気象観測

当レポートは23分前の17:00(UTC)に作成
西/南西の風 2kt
気温 12°C
湿度 35%
気圧 1033 hPa
視程10km以上
1,500メートル以下は雲なし、積乱雲なし

METAR: UKOO 071700Z 24001MPS CAVOK 12/M03 Q1033 R34/090060 NOSIG

時間: 20:23 (17:23 UTC)

予報

当レポートは6時間20分前の11:03(UTC)に作成
予報は07日の 12時(UTC)から 08日の 12時(UTC)まで有効
の風 10kt、最大21ktの突風を伴う
視程: 6000m
07日の 16時(UTC)から 07日の 17時(UTC)まで徐々に
南東の風 6kt

TAF: UKOO 071103Z 0712/0812 08005G11MPS 6000 NSC TX16/0712Z TN02/0803Z BECMG 0716/0717 13003MPS

4,000以上の空港の気象観測と天気予報(METAR報とTAF報)

利用可能な観測所は地図上に黄色い丸と赤い丸で示す。

丸の上にカーソルを重ねると観測所名を参照できる。

次にクリックすると気象観測と天気予報を参照できる。

マップの切り替え:黒色「×」印の緑ボタンをクリックして拡大、「-」印の緑ボタンをクリックして縮小、緑色の三角印をクリックして隣りの地図に切り替え


METAR-TAF: